createdAt,value
2022-08-28T00:00:43.237Z,27.14
2022-08-28T00:03:11.372Z,27.13
2022-08-28T00:05:39.938Z,26.29
2022-08-28T00:08:07.672Z,26.93
2022-08-28T00:10:35.548Z,26.91
2022-08-28T00:13:02.881Z,26.59
2022-08-28T00:15:32.004Z,26.83
2022-08-28T00:17:59.660Z,26.14
2022-08-28T00:20:27.781Z,26.52
2022-08-28T00:22:55.667Z,26.57
2022-08-28T00:25:24.512Z,26.73
2022-08-28T00:27:52.594Z,26.77
2022-08-28T00:30:25.681Z,26.47
2022-08-28T00:32:53.951Z,26.63
2022-08-28T00:35:21.877Z,26.54
2022-08-28T00:37:50.579Z,26.56
2022-08-28T00:40:28.437Z,26.08
2022-08-28T00:43:00.971Z,25.36
2022-08-28T00:45:28.629Z,25.45
2022-08-28T00:47:56.491Z,25.32
2022-08-28T00:50:25.073Z,25.55
2022-08-28T00:52:53.835Z,25.26
2022-08-28T00:55:22.569Z,25.23
2022-08-28T00:57:51.631Z,25.41
2022-08-28T01:00:24.980Z,25.27
2022-08-28T01:02:53.203Z,25.40
2022-08-28T01:05:21.005Z,25.98
2022-08-28T01:07:48.457Z,25.45
2022-08-28T01:10:17.302Z,26.01
2022-08-28T01:12:45.310Z,25.66
2022-08-28T01:15:14.863Z,26.18
2022-08-28T01:17:43.364Z,26.20
2022-08-28T01:20:12.425Z,25.85
2022-08-28T01:22:41.580Z,25.71
2022-08-28T01:25:10.528Z,26.12
2022-08-28T01:27:38.754Z,25.23
2022-08-28T01:30:06.573Z,25.39
2022-08-28T01:32:40.530Z,25.55
2022-08-28T01:35:09.761Z,25.61
2022-08-28T01:37:37.234Z,25.45
2022-08-28T01:40:05.264Z,24.99
2022-08-28T01:42:36.937Z,24.27
2022-08-28T01:45:04.544Z,24.64
2022-08-28T01:47:31.833Z,24.94
2022-08-28T01:49:59.803Z,24.09
2022-08-28T01:52:27.036Z,24.29
2022-08-28T01:54:54.349Z,23.60
2022-08-28T01:57:23.945Z,24.45
2022-08-28T01:59:51.388Z,24.60
2022-08-28T02:02:18.890Z,24.64
2022-08-28T02:04:48.351Z,24.96
2022-08-28T02:07:17.007Z,25.08
2022-08-28T02:09:44.388Z,25.28
2022-08-28T02:12:11.937Z,25.38
2022-08-28T02:14:39.520Z,25.08
2022-08-28T02:17:06.781Z,25.09
2022-08-28T02:19:34.331Z,25.45
2022-08-28T02:22:01.571Z,25.66
2022-08-28T02:24:29.422Z,25.58
2022-08-28T02:26:57.001Z,26.00
2022-08-28T02:29:26.132Z,25.84
2022-08-28T02:31:53.385Z,25.93
2022-08-28T02:34:20.913Z,26.13
2022-08-28T02:36:48.176Z,26.17
2022-08-28T02:39:15.498Z,26.01
2022-08-28T02:41:43.304Z,26.17
2022-08-28T02:44:10.488Z,26.40
2022-08-28T02:46:37.787Z,26.29
2022-08-28T02:49:05.304Z,26.00
2022-08-28T02:51:33.610Z,25.52
2022-08-28T02:54:01.372Z,25.38
2022-08-28T02:56:28.947Z,25.69
2022-08-28T02:58:56.659Z,25.05
2022-08-28T03:01:24.190Z,25.24
2022-08-28T03:03:51.792Z,25.45
2022-08-28T03:06:19.049Z,25.71
2022-08-28T03:08:46.397Z,25.57
2022-08-28T03:11:13.907Z,25.48
2022-08-28T03:13:42.396Z,25.66
2022-08-28T03:16:09.751Z,25.13
2022-08-28T03:18:37.298Z,24.91
2022-08-28T03:21:04.560Z,24.54
2022-08-28T03:23:32.082Z,25.08
2022-08-28T03:26:04.998Z,25.18
2022-08-28T03:28:38.312Z,25.25
2022-08-28T03:31:06.542Z,25.44
2022-08-28T03:33:34.028Z,25.37
2022-08-28T03:36:01.511Z,25.22
2022-08-28T03:38:32.343Z,25.50
2022-08-28T03:40:59.549Z,25.53
2022-08-28T03:43:27.429Z,25.60
2022-08-28T03:45:59.169Z,25.38
2022-08-28T03:48:27.367Z,24.84
2022-08-28T03:50:56.117Z,24.79
2022-08-28T03:53:24.073Z,24.81
2022-08-28T03:55:51.425Z,25.28
2022-08-28T03:58:19.397Z,25.50
2022-08-28T04:00:46.723Z,26.04
2022-08-28T04:03:14.378Z,26.22
2022-08-28T04:05:45.592Z,26.34
2022-08-28T04:08:15.941Z,26.40
2022-08-28T04:10:44.185Z,26.16
2022-08-28T04:13:11.904Z,26.27
2022-08-28T04:15:39.519Z,26.21
2022-08-28T04:18:07.340Z,26.25
2022-08-28T04:20:34.636Z,26.38
2022-08-28T04:23:04.082Z,26.36
2022-08-28T04:25:31.656Z,26.40
2022-08-28T04:27:59.021Z,26.24
2022-08-28T04:30:26.237Z,26.24
2022-08-28T04:32:53.864Z,26.14
2022-08-28T04:35:21.080Z,26.08
2022-08-28T04:37:48.450Z,25.76
2022-08-28T04:40:16.126Z,25.85
2022-08-28T04:42:45.094Z,25.57
2022-08-28T04:45:13.589Z,25.86
2022-08-28T04:47:41.161Z,25.84
2022-08-28T04:50:08.730Z,25.89
2022-08-28T04:52:35.980Z,25.52
2022-08-28T04:55:04.448Z,25.63
2022-08-28T04:57:35.777Z,25.87
2022-08-28T05:00:05.207Z,26.31
2022-08-28T05:02:32.843Z,26.40
2022-08-28T05:05:00.134Z,26.47
2022-08-28T05:07:27.642Z,26.61
2022-08-28T05:09:54.997Z,27.29
2022-08-28T05:12:22.254Z,28.03
2022-08-28T05:14:49.882Z,27.99
2022-08-28T05:17:17.181Z,28.05
2022-08-28T05:19:44.507Z,28.10
2022-08-28T05:22:12.057Z,28.24
2022-08-28T05:24:40.041Z,28.45
2022-08-28T05:27:07.541Z,28.50
2022-08-28T05:29:35.090Z,28.38
2022-08-28T05:32:02.449Z,28.32
2022-08-28T05:34:29.748Z,28.84
2022-08-28T05:36:58.007Z,28.81
2022-08-28T05:39:25.269Z,28.94
2022-08-28T05:41:52.535Z,29.19
2022-08-28T05:44:21.056Z,29.83
2022-08-28T05:46:48.486Z,30.16
2022-08-28T05:49:17.779Z,30.37
2022-08-28T05:51:45.722Z,30.75
2022-08-28T05:54:13.170Z,30.80
2022-08-28T05:56:40.801Z,30.62
2022-08-28T05:59:08.679Z,30.29
2022-08-28T06:01:38.074Z,29.96
2022-08-28T06:04:10.320Z,29.61
2022-08-28T06:06:39.309Z,29.68
2022-08-28T06:09:08.848Z,29.16
2022-08-28T06:11:36.137Z,28.91
2022-08-28T06:14:03.685Z,28.45
2022-08-28T06:16:32.219Z,28.67
2022-08-28T06:19:00.427Z,28.87
2022-08-28T06:21:28.259Z,28.68
2022-08-28T06:23:56.192Z,28.59
2022-08-28T06:26:23.794Z,28.68
2022-08-28T06:28:53.126Z,28.34
2022-08-28T06:31:23.679Z,28.56
2022-08-28T06:33:54.256Z,28.52
2022-08-28T06:36:22.293Z,28.26
2022-08-28T06:38:49.695Z,28.07
2022-08-28T06:41:19.713Z,28.34
2022-08-28T06:43:47.565Z,28.57
2022-08-28T06:46:14.928Z,28.62
2022-08-28T06:48:42.434Z,28.83
2022-08-28T06:51:11.375Z,28.95
2022-08-28T06:53:39.896Z,29.11
2022-08-28T06:56:11.249Z,29.30
2022-08-28T06:58:41.830Z,29.43
2022-08-28T07:01:14.021Z,29.48
2022-08-28T07:03:42.742Z,29.23
2022-08-28T07:06:12.720Z,29.42
2022-08-28T07:08:40.309Z,29.53
2022-08-28T07:11:14.003Z,29.59
2022-08-28T07:13:41.926Z,29.60
2022-08-28T07:16:09.907Z,29.69
2022-08-28T07:18:37.237Z,29.74
2022-08-28T07:21:05.686Z,29.26
2022-08-28T07:23:36.497Z,29.34
2022-08-28T07:26:08.314Z,29.36
2022-08-28T07:28:36.036Z,29.48
2022-08-28T07:31:05.264Z,28.89
2022-08-28T07:33:33.216Z,29.16
2022-08-28T07:36:00.811Z,29.20
2022-08-28T07:38:28.170Z,29.32
2022-08-28T07:40:55.562Z,29.29
2022-08-28T07:43:41.904Z,29.09
2022-08-28T07:46:11.523Z,29.15
2022-08-28T07:48:39.736Z,29.36
2022-08-28T07:51:07.592Z,29.56
2022-08-28T07:53:36.658Z,28.98
2022-08-28T07:56:04.853Z,29.18
2022-08-28T07:58:32.905Z,29.12
2022-08-28T08:01:01.319Z,29.59
2022-08-28T08:03:29.860Z,29.86
2022-08-28T08:05:58.092Z,29.68
2022-08-28T08:08:25.434Z,29.71
2022-08-28T08:11:16.533Z,29.65
2022-08-28T08:13:45.324Z,29.71
2022-08-28T08:16:14.273Z,29.01
2022-08-28T08:18:41.951Z,29.30
2022-08-28T08:21:11.460Z,29.65
2022-08-28T08:23:39.382Z,29.91
2022-08-28T08:26:08.088Z,29.71
2022-08-28T08:28:36.673Z,29.63
2022-08-28T08:31:05.092Z,29.74
2022-08-28T08:33:32.571Z,29.73
2022-08-28T08:36:00.533Z,29.82
2022-08-28T08:38:31.448Z,29.43
2022-08-28T08:40:59.311Z,29.52
2022-08-28T08:43:27.501Z,29.43
2022-08-28T08:45:55.168Z,29.93
2022-08-28T08:48:28.520Z,30.25
2022-08-28T08:50:57.907Z,29.59
2022-08-28T08:53:31.382Z,29.84
2022-08-28T08:56:00.124Z,30.08
2022-08-28T08:58:28.036Z,30.46
2022-08-28T09:00:57.578Z,30.31
2022-08-28T09:04:00.748Z,30.30
2022-08-28T09:07:00.619Z,30.69
2022-08-28T09:09:28.187Z,30.88
2022-08-28T09:11:57.064Z,30.51
2022-08-28T09:14:32.239Z,30.23
2022-08-28T09:16:59.911Z,30.51
2022-08-28T09:19:27.268Z,30.75
2022-08-28T09:21:54.660Z,30.56
2022-08-28T09:24:29.514Z,30.49
2022-08-28T09:26:58.349Z,30.69
2022-08-28T09:29:28.642Z,30.67
2022-08-28T09:31:56.188Z,31.22
2022-08-28T09:34:24.047Z,31.49
2022-08-28T09:36:52.601Z,31.55
2022-08-28T09:39:24.300Z,31.65
2022-08-28T09:42:18.818Z,31.37
2022-08-28T09:44:47.328Z,31.20
2022-08-28T09:47:46.877Z,31.16
2022-08-28T09:50:29.634Z,31.45
2022-08-28T09:52:59.166Z,31.28
2022-08-28T09:55:45.189Z,31.54
2022-08-28T09:58:13.969Z,31.46
2022-08-28T10:00:43.752Z,31.44
2022-08-28T10:03:15.070Z,31.72
2022-08-28T10:05:46.007Z,32.36
2022-08-28T10:08:22.372Z,32.01
2022-08-28T10:10:54.056Z,32.39
2022-08-28T10:13:31.580Z,32.19
2022-08-28T10:16:11.987Z,32.71
2022-08-28T10:18:43.240Z,32.57
2022-08-28T10:21:22.921Z,32.59
2022-08-28T10:24:08.511Z,32.78
2022-08-28T10:26:42.348Z,33.01
2022-08-28T10:29:12.688Z,33.27
2022-08-28T10:31:46.188Z,33.30
2022-08-28T10:34:26.646Z,33.28
2022-08-28T10:37:04.993Z,33.70
2022-08-28T10:39:39.874Z,33.09
2022-08-28T10:42:07.597Z,33.00
2022-08-28T10:44:40.078Z,33.66
2022-08-28T10:47:07.534Z,33.99
2022-08-28T10:49:36.097Z,33.86
2022-08-28T10:52:05.464Z,33.43
2022-08-28T10:54:41.631Z,33.68
2022-08-28T10:57:24.824Z,33.97
2022-08-28T10:59:52.820Z,33.64
2022-08-28T11:02:22.382Z,34.06
2022-08-28T11:04:49.712Z,34.28
2022-08-28T11:07:21.490Z,34.45
2022-08-28T11:09:49.181Z,34.57
2022-08-28T11:12:16.498Z,34.26
2022-08-28T11:14:48.472Z,34.38
2022-08-28T11:17:22.870Z,34.14
2022-08-28T11:19:59.486Z,34.18
2022-08-28T11:22:27.025Z,34.07
2022-08-28T11:25:01.705Z,33.76
2022-08-28T11:27:33.370Z,33.80
2022-08-28T11:30:11.007Z,34.31
2022-08-28T11:32:41.381Z,34.36
2022-08-28T11:35:20.325Z,34.46
2022-08-28T11:37:48.778Z,34.24
2022-08-28T11:40:17.713Z,33.72
2022-08-28T11:42:48.699Z,34.18
2022-08-28T11:45:20.613Z,33.96
2022-08-28T11:47:56.688Z,33.97
2022-08-28T11:50:26.556Z,33.83
2022-08-28T11:53:17.411Z,33.87
2022-08-28T11:55:46.988Z,34.49
2022-08-28T11:58:14.284Z,34.31
2022-08-28T12:00:50.023Z,34.54
2022-08-28T12:03:36.882Z,34.17
2022-08-28T12:06:05.921Z,34.62
2022-08-28T12:08:46.886Z,34.12
2022-08-28T12:11:32.863Z,33.55
2022-08-28T12:14:00.425Z,33.67
2022-08-28T12:16:27.700Z,33.39
2022-08-28T12:18:55.411Z,33.26
2022-08-28T12:21:23.489Z,33.32
2022-08-28T12:23:58.982Z,33.65
2022-08-28T12:26:26.816Z,33.11
2022-08-28T12:29:00.882Z,33.13
2022-08-28T12:31:48.416Z,33.32
2022-08-28T12:34:24.985Z,33.04
2022-08-28T12:36:59.280Z,33.02
2022-08-28T12:39:26.930Z,33.15
2022-08-28T12:41:54.538Z,33.46
2022-08-28T12:44:28.846Z,33.38
2022-08-28T12:46:56.635Z,33.38
2022-08-28T12:49:27.242Z,32.92
2022-08-28T12:52:16.682Z,32.94
2022-08-28T12:54:45.267Z,32.94
2022-08-28T12:57:14.031Z,32.96
2022-08-28T12:59:42.324Z,32.09
2022-08-28T13:02:13.611Z,32.48
2022-08-28T13:04:42.892Z,32.44
2022-08-28T13:07:13.323Z,32.68
2022-08-28T13:09:47.988Z,32.39
2022-08-28T13:12:54.925Z,33.10
2022-08-28T13:15:37.074Z,33.08
2022-08-28T13:18:04.604Z,32.73
2022-08-28T13:20:33.026Z,32.96
2022-08-28T13:23:00.972Z,32.72
2022-08-28T13:25:31.064Z,32.76
2022-08-28T13:27:59.391Z,33.08
2022-08-28T13:30:28.188Z,33.04
2022-08-28T13:32:57.091Z,33.04
2022-08-28T13:35:24.366Z,32.72
2022-08-28T13:37:52.986Z,32.30
2022-08-28T13:40:55.669Z,32.35
2022-08-28T13:43:10.988Z,32.29
2022-08-28T13:45:42.860Z,32.49
2022-08-28T13:48:15.794Z,32.19
2022-08-28T13:50:46.854Z,32.55
2022-08-28T13:53:16.083Z,32.63
2022-08-28T13:55:44.020Z,32.87
2022-08-28T13:58:11.358Z,32.31
2022-08-28T14:00:39.976Z,32.57
2022-08-28T14:03:26.289Z,32.93
2022-08-28T14:05:54.314Z,32.70
2022-08-28T14:08:22.015Z,32.72
2022-08-28T14:10:49.443Z,32.96
2022-08-28T14:13:17.355Z,32.65
2022-08-28T14:15:45.672Z,32.84
2022-08-28T14:18:13.013Z,32.95
2022-08-28T14:20:40.438Z,33.15
2022-08-28T14:23:08.811Z,32.65
2022-08-28T14:25:42.447Z,32.78
2022-08-28T14:28:10.354Z,32.94
2022-08-28T14:30:43.999Z,32.82
2022-08-28T14:33:11.624Z,32.98
2022-08-28T14:35:39.818Z,32.64
2022-08-28T14:38:07.599Z,32.59
2022-08-28T14:40:44.701Z,32.53
2022-08-28T14:43:12.633Z,32.94
2022-08-28T14:45:47.153Z,32.55
2022-08-28T14:48:14.881Z,33.00
2022-08-28T14:50:43.153Z,32.34
2022-08-28T14:53:11.045Z,32.43
2022-08-28T14:55:39.424Z,32.88
2022-08-28T14:58:07.025Z,32.84
2022-08-28T15:00:38.246Z,32.87
2022-08-28T15:03:05.601Z,32.98
2022-08-28T15:05:34.112Z,32.38
2022-08-28T15:08:01.737Z,32.69
2022-08-28T15:10:29.516Z,32.96
2022-08-28T15:12:57.042Z,31.77
2022-08-28T15:15:26.203Z,32.26
2022-08-28T15:17:53.533Z,32.19
2022-08-28T15:20:21.312Z,32.27
2022-08-28T15:22:48.662Z,32.38
2022-08-28T15:25:16.060Z,32.38
2022-08-28T15:27:43.624Z,32.90
2022-08-28T15:30:11.691Z,32.74
2022-08-28T15:32:40.184Z,32.84
2022-08-28T15:35:07.921Z,32.62
2022-08-28T15:37:35.390Z,32.47
2022-08-28T15:40:21.186Z,32.69
2022-08-28T15:42:48.819Z,32.54
2022-08-28T15:45:16.936Z,31.67
2022-08-28T15:47:44.170Z,31.24
2022-08-28T15:50:11.724Z,31.43
2022-08-28T15:52:39.098Z,32.07
2022-08-28T15:55:06.618Z,31.17
2022-08-28T15:57:34.201Z,31.43
2022-08-28T16:00:01.945Z,31.43
2022-08-28T16:02:32.091Z,31.44
2022-08-28T16:04:59.812Z,31.00
2022-08-28T16:07:27.098Z,31.48
2022-08-28T16:09:54.449Z,31.51
2022-08-28T16:12:22.901Z,31.52
2022-08-28T16:14:50.380Z,31.19
2022-08-28T16:17:18.738Z,31.03
2022-08-28T16:19:47.596Z,30.77
2022-08-28T16:22:18.228Z,31.05
2022-08-28T16:24:45.523Z,31.30
2022-08-28T16:27:15.356Z,31.20
2022-08-28T16:29:45.986Z,31.38
2022-08-28T16:32:17.053Z,31.45
2022-08-28T16:35:56.905Z,31.09
2022-08-28T16:37:39.873Z,31.13
2022-08-28T16:40:08.901Z,31.32
2022-08-28T16:42:36.542Z,31.12
2022-08-28T16:45:04.462Z,31.43
2022-08-28T16:47:33.042Z,31.20
2022-08-28T16:50:01.857Z,31.30
2022-08-28T16:52:29.116Z,30.88
2022-08-28T16:54:56.417Z,31.06
2022-08-28T16:57:24.026Z,30.97
2022-08-28T16:59:53.506Z,31.34
2022-08-28T17:02:25.368Z,31.35
2022-08-28T17:04:54.520Z,30.35
2022-08-28T17:07:21.850Z,30.57
2022-08-28T17:09:49.181Z,30.57
2022-08-28T17:12:16.818Z,31.08
2022-08-28T17:14:44.918Z,31.16
2022-08-28T17:17:12.236Z,30.85
2022-08-28T17:19:40.097Z,30.95
2022-08-28T17:22:27.471Z,30.92
2022-08-28T17:24:55.377Z,30.65
2022-08-28T17:27:23.491Z,30.84
2022-08-28T17:29:50.977Z,30.59
2022-08-28T17:32:18.607Z,30.63
2022-08-28T17:34:46.040Z,30.68
2022-08-28T17:37:13.338Z,30.19
2022-08-28T17:39:40.958Z,30.69
2022-08-28T17:42:08.849Z,30.59
2022-08-28T17:44:36.484Z,30.65
2022-08-28T17:47:04.185Z,30.65
2022-08-28T17:49:31.495Z,30.67
2022-08-28T17:51:58.936Z,30.80
2022-08-28T17:54:26.557Z,30.56
2022-08-28T17:56:54.568Z,30.54
2022-08-28T17:59:23.562Z,30.73
2022-08-28T18:01:51.319Z,30.73
2022-08-28T18:04:23.891Z,30.72
2022-08-28T18:06:54.298Z,30.73
2022-08-28T18:09:22.900Z,30.74
2022-08-28T18:11:50.634Z,30.67
2022-08-28T18:14:18.264Z,30.70
2022-08-28T18:16:45.959Z,30.64
2022-08-28T18:19:13.940Z,30.62
2022-08-28T18:21:41.407Z,30.66
2022-08-28T18:24:10.386Z,30.57
2022-08-28T18:26:37.876Z,30.49
2022-08-28T18:29:05.494Z,30.44
2022-08-28T18:31:33.499Z,30.43
2022-08-28T18:34:01.089Z,30.33
2022-08-28T18:36:30.335Z,30.37
2022-08-28T18:38:58.291Z,30.10
2022-08-28T18:41:41.549Z,30.30
2022-08-28T18:44:13.482Z,30.30
2022-08-28T18:46:41.479Z,30.24
2022-08-28T18:49:09.692Z,30.23
2022-08-28T18:51:37.464Z,30.23
2022-08-28T18:54:04.947Z,30.21
2022-08-28T18:56:33.992Z,30.17
2022-08-28T18:59:03.988Z,30.06
2022-08-28T19:01:32.450Z,29.93
2022-08-28T19:03:59.898Z,29.69
2022-08-28T19:06:28.663Z,29.84
2022-08-28T19:08:56.057Z,29.86
2022-08-28T19:11:23.424Z,29.62
2022-08-28T19:13:52.075Z,29.87
2022-08-28T19:16:19.649Z,29.93
2022-08-28T19:18:47.844Z,29.89
2022-08-28T19:21:16.622Z,29.67
2022-08-28T19:23:53.842Z,29.88
2022-08-28T19:26:26.945Z,29.69
2022-08-28T19:28:54.773Z,29.76
2022-08-28T19:31:22.993Z,29.66
2022-08-28T19:33:51.021Z,29.50
2022-08-28T19:36:18.698Z,29.65
2022-08-28T19:38:46.003Z,29.57
2022-08-28T19:41:14.885Z,29.46
2022-08-28T19:43:44.237Z,29.61
2022-08-28T19:46:18.637Z,29.60
2022-08-28T19:48:49.192Z,29.55
2022-08-28T19:51:17.582Z,29.46
2022-08-28T19:53:57.408Z,29.41
2022-08-28T19:56:29.923Z,29.34
2022-08-28T19:58:59.205Z,29.28
2022-08-28T20:01:30.305Z,29.29
2022-08-28T20:03:59.526Z,29.34
2022-08-28T20:06:27.489Z,29.17
2022-08-28T20:08:55.047Z,28.91
2022-08-28T20:11:25.296Z,29.10
2022-08-28T20:13:57.776Z,29.19
2022-08-28T20:16:27.477Z,29.17
2022-08-28T20:18:55.510Z,29.04
2022-08-28T20:21:37.475Z,28.91
2022-08-28T20:24:07.465Z,28.76
2022-08-28T20:26:34.918Z,28.41
2022-08-28T20:29:02.398Z,28.46
2022-08-28T20:31:30.023Z,28.51
2022-08-28T20:33:57.454Z,28.61
2022-08-28T20:36:26.304Z,28.68
2022-08-28T20:38:54.420Z,28.66
2022-08-28T20:41:22.693Z,28.71
2022-08-28T20:43:50.160Z,28.49
2022-08-28T20:46:17.763Z,28.27
2022-08-28T20:48:45.175Z,28.02
2022-08-28T20:51:12.506Z,28.25
2022-08-28T20:53:40.222Z,28.26
2022-08-28T20:56:08.499Z,27.87
2022-08-28T20:58:35.971Z,27.92
2022-08-28T21:01:03.706Z,27.94
2022-08-28T21:03:31.001Z,28.08
2022-08-28T21:05:58.299Z,28.15
2022-08-28T21:08:25.898Z,27.76
2022-08-28T21:10:53.208Z,27.84
2022-08-28T21:13:20.645Z,27.93
2022-08-28T21:15:48.283Z,27.69
2022-08-28T21:18:15.986Z,27.89
2022-08-28T21:20:43.576Z,28.07
2022-08-28T21:23:11.402Z,28.02
2022-08-28T21:25:40.249Z,28.05
2022-08-28T21:28:07.777Z,28.17
2022-08-28T21:30:35.521Z,28.25
2022-08-28T21:33:02.865Z,28.21
2022-08-28T21:35:30.202Z,27.84
2022-08-28T21:37:57.739Z,28.02
2022-08-28T21:40:25.094Z,28.02
2022-08-28T21:42:52.407Z,27.69
2022-08-28T21:45:20.108Z,27.75
2022-08-28T21:47:47.429Z,27.98
2022-08-28T21:50:14.732Z,28.02
2022-08-28T21:52:42.288Z,27.75
2022-08-28T21:55:11.430Z,27.96
2022-08-28T21:57:38.681Z,27.62
2022-08-28T22:00:09.241Z,27.99
2022-08-28T22:02:36.494Z,27.90
2022-08-28T22:05:04.361Z,27.68
2022-08-28T22:07:31.819Z,27.52
2022-08-28T22:09:59.044Z,27.53
2022-08-28T22:12:26.591Z,27.14
2022-08-28T22:14:54.230Z,27.21
2022-08-28T22:17:21.473Z,27.21
2022-08-28T22:19:49.047Z,27.40
2022-08-28T22:22:35.110Z,27.12
2022-08-28T22:25:03.179Z,27.15
2022-08-28T22:27:31.998Z,27.01
2022-08-28T22:29:59.824Z,25.96
2022-08-28T22:32:27.882Z,26.73
2022-08-28T22:34:55.816Z,26.34
2022-08-28T22:37:23.382Z,26.69
2022-08-28T22:39:50.996Z,26.74
2022-08-28T22:42:18.266Z,26.97
2022-08-28T22:44:46.875Z,27.34
2022-08-28T22:47:14.551Z,27.44
2022-08-28T22:49:41.806Z,27.56
2022-08-28T22:52:09.923Z,27.47
2022-08-28T22:54:37.556Z,27.36
2022-08-28T22:57:05.914Z,27.42
2022-08-28T22:59:33.604Z,27.35
2022-08-28T23:02:01.388Z,27.22
2022-08-28T23:04:28.814Z,26.97
2022-08-28T23:06:56.254Z,27.16
2022-08-28T23:09:23.771Z,27.09
2022-08-28T23:11:51.377Z,27.15
2022-08-28T23:14:18.601Z,26.94
2022-08-28T23:16:46.166Z,27.05
2022-08-28T23:19:13.746Z,27.08
2022-08-28T23:21:43.685Z,26.98
2022-08-28T23:24:12.744Z,27.01
2022-08-28T23:26:40.102Z,26.76
2022-08-28T23:29:07.326Z,26.31
2022-08-28T23:31:35.199Z,26.49
2022-08-28T23:34:02.867Z,26.12
2022-08-28T23:36:32.448Z,25.93
2022-08-28T23:39:03.392Z,26.37
2022-08-28T23:41:31.007Z,26.39
2022-08-28T23:43:58.276Z,26.53
2022-08-28T23:46:25.895Z,26.57
2022-08-28T23:48:53.136Z,26.28
2022-08-28T23:51:21.969Z,26.39
2022-08-28T23:53:49.850Z,26.25
2022-08-28T23:56:17.303Z,26.48
2022-08-28T23:58:45.620Z,26.65
